Time;durP1;ratioP1;P1;durP2;ratioP2;P2;SDS_P1;SDS_P2;PMS_P1;PMS_P2;Temp;Humidity;BMP_temperature;BMP_pressure;BME280_temperature;BME280_humidity;BME280_pressure;Samples;Min_cycle;Max_cycle;Signal;HPM_P1;HPM_P2
2022/06/25 00:05:41;;;;;;;0.57;0.30;;;;;;;;;;20943287;28;20761;-72
2022/06/25 00:15:43;;;;;;;0.40;0.30;;;;;;;;;;20877286;28;20232;-71
2022/06/25 00:25:45;;;;;;;1.03;0.40;;;;;;;;;;20877614;28;20217;-72
2022/06/25 00:35:47;;;;;;;1.07;0.33;;;;;;;;;;20948844;28;20757;-72
2022/06/25 00:45:49;;;;;;;1.53;0.30;;;;;;;;;;20958523;28;20635;-71
2022/06/25 00:55:51;;;;;;;0.97;0.40;;;;;;;;;;20974495;28;20218;-71
2022/06/25 01:05:53;;;;;;;0.83;0.40;;;20.10;99.90;;;;;;20957139;28;20285;-71
2022/06/25 01:15:55;;;;;;;0.90;0.40;;;;;;;;;;20955603;28;20203;-72
2022/06/25 01:25:57;;;;;;;1.73;0.50;;;20.40;99.90;;;;;;20956123;28;20238;-72
2022/06/25 01:35:59;;;;;;;0.40;0.40;;;;;;;;;;20955268;28;20210;-71
2022/06/25 01:46:02;;;;;;;3.97;0.50;;;;;;;;;;20971082;28;20252;-71
2022/06/25 01:56:16;;;;;;;1.53;0.43;;;;;;;;;;20957973;28;20211;-71
2022/06/25 02:06:18;;;;;;;2.73;0.60;;;;;;;;;;20937590;28;20224;-72
2022/06/25 02:16:20;;;;;;;2.07;0.53;;;;;;;;;;20936602;28;20207;-72
2022/06/25 02:26:22;;;;;;;2.40;0.70;;;;;;;;;;20940701;28;20231;-72
2022/06/25 02:36:24;;;;;;;1.80;0.70;;;;;;;;;;20985911;28;20699;-72
2022/06/25 02:46:26;;;;;;;6.80;0.83;;;;;;;;;;20952030;28;20251;-72
2022/06/25 03:06:52;;;;;;;1.10;0.63;;;;;;;;;;20985901;28;20305;-72
2022/06/25 03:16:54;;;;;;;1.23;0.90;;;;;;;;;;20965840;28;20253;-72
2022/06/25 03:26:57;;;;;;;1.27;0.70;;;;;;;;;;20965616;28;20689;-71
2022/06/25 03:37:00;;;;;;;2.30;1.00;;;;;;;;;;20964888;28;20270;-72
2022/06/25 03:47:04;;;;;;;3.93;1.07;;;;;;;;;;21012618;28;20219;-71
2022/06/25 03:57:08;;;;;;;1.10;0.70;;;;;;;;;;21030913;28;20203;-72
2022/06/25 04:07:31;;;;;;;1.20;0.60;;;;;;;;;;21049116;28;20308;-72
2022/06/25 04:17:34;;;;;;;1.27;0.60;;;;;;;;;;21027823;28;20519;-72
2022/06/25 04:37:58;;;;;;;1.63;0.90;;;;;;;;;;20979301;28;20764;-72
2022/06/25 04:48:01;;;;;;;1.83;0.90;;;19.30;99.90;;;;;;20941506;28;20228;-71
2022/06/25 04:58:24;;;;;;;2.03;1.00;;;;;;;;;;20973146;28;20254;-72
2022/06/25 05:08:33;;;;;;;1.53;0.70;;;;;;;;;;20974509;28;20224;-73
2022/06/25 05:18:35;;;;;;;1.30;0.60;;;;;;;;;;20939906;28;20211;-74
2022/06/25 05:28:37;;;;;;;2.67;0.60;;;;;;;;;;20956297;28;20229;-74
2022/06/25 05:38:39;;;;;;;3.07;0.70;;;;;;;;;;20955824;28;20279;-73
2022/06/25 05:48:42;;;;;;;0.50;0.40;;;;;;;;;;20971694;28;20960;-73
2022/06/25 05:58:43;;;;;;;0.60;0.50;;;;;;;;;;20938355;28;20277;-72
2022/06/25 06:08:45;;;;;;;2.57;0.60;;;;;;;;;;20926034;28;20248;-71
2022/06/25 06:18:47;;;;;;;0.30;0.30;;;;;;;;;;20953271;28;20216;-73
2022/06/25 06:28:49;;;;;;;1.20;0.50;;;;;;;;;;20930515;28;20697;-73
2022/06/25 06:38:51;;;;;;;0.53;0.30;;;;;;;;;;20951607;28;20272;-74
2022/06/25 06:48:53;;;;;;;1.03;0.40;;;;;;;;;;21026567;22;20214;-74
2022/06/25 06:58:55;;;;;;;1.87;0.40;;;;;;;;;;21080355;28;20266;-74
2022/06/25 07:08:56;;;;;;;0.30;0.30;;;;;;;;;;21032720;28;20225;-74
2022/06/25 07:18:59;;;;;;;1.87;0.50;;;;;;;;;;21062036;28;20207;-75
2022/06/25 07:29:01;;;;;;;0.93;0.40;;;;;;;;;;21104897;28;20284;-74
2022/06/25 07:39:03;;;;;;;0.93;0.40;;;;;;;;;;21083063;28;20266;-75
2022/06/25 07:49:04;;;;;;;0.47;0.40;;;;;;;;;;21061463;28;20223;-72
2022/06/25 07:59:06;;;;;;;0.50;0.40;;;;;;;;;;21079274;28;20208;-74
2022/06/25 08:09:08;;;;;;;0.95;0.40;;;22.80;99.90;;;;;;21078573;28;20213;-73
2022/06/25 08:19:10;;;;;;;0.75;0.50;;;;;;;;;;21078678;28;20216;-71
2022/06/25 08:29:12;;;;;;;0.50;0.40;;;;;;;;;;21077442;28;20214;-74
2022/06/25 08:39:13;;;;;;;0.35;0.35;;;;;;;;;;21068258;28;20208;-72
2022/06/25 08:49:16;;;;;;;0.95;0.40;;;;;;;;;;21077274;28;20276;-72
2022/06/25 08:59:18;;;;;;;0.65;0.30;;;;;;;;;;21058093;28;20218;-71
2022/06/25 09:09:20;;;;;;;0.50;0.30;;;;;;;;;;21064552;28;20222;-71
2022/06/25 09:19:47;;;;;;;2.72;0.50;;;23.80;99.90;;;;;;21053886;28;20211;-71
2022/06/25 09:29:51;;;;;;;0.60;0.50;;;23.90;99.90;;;;;;21073808;28;20276;-71
2022/06/25 09:39:54;;;;;;;0.98;0.45;;;24.00;99.90;;;;;;21035987;28;20203;-71
2022/06/25 09:50:12;;;;;;;1.15;0.40;;;24.40;99.90;;;;;;21070511;28;20326;-71
2022/06/25 10:00:14;;;;;;;0.65;0.50;;;;;;;;;;21070103;28;20252;-72
2022/06/25 10:10:20;;;;;;;0.40;0.30;;;;;;;;;;21050982;28;20276;-72
2022/06/25 10:20:22;;;;;;;1.48;0.40;;;24.20;99.90;;;;;;21051985;28;20543;-71
2022/06/25 10:30:36;;;;;;;0.70;0.40;;;;;;;;;;21050924;28;20245;-71
2022/06/25 10:40:58;;;;;;;0.68;0.40;;;24.20;99.90;;;;;;21069253;28;20740;-71
2022/06/25 10:51:00;;;;;;;0.70;0.40;;;;;;;;;;21078539;28;20241;-71
2022/06/25 11:01:02;;;;;;;0.55;0.38;;;25.40;99.90;;;;;;21084630;28;20200;-71
2022/06/25 11:11:05;;;;;;;0.68;0.45;;;25.60;99.90;;;;;;21065924;28;20273;-72
2022/06/25 11:21:07;;;;;;;0.80;0.40;;;;;;;;;;21064782;28;20207;-72
2022/06/25 11:31:12;;;;;;;0.35;0.30;;;;;;;;;;21063877;28;20265;-72
2022/06/25 11:41:27;;;;;;;7.50;4.10;;;26.00;99.90;;;;;;21081291;28;20272;-72
2022/06/25 11:51:29;;;;;;;1.23;0.50;;;;;;;;;;21054480;28;20223;-71
2022/06/25 12:01:31;;;;;;;1.67;0.50;;;;;;;;;;21061591;28;20260;-70
2022/06/25 12:11:33;;;;;;;0.55;0.30;;;;;;;;;;21078734;28;20225;-70
2022/06/25 12:21:35;;;;;;;0.52;0.40;;;;;;;;;;21071319;28;20750;-73
2022/06/25 12:31:37;;;;;;;0.30;0.30;;;;;;;;;;21042783;28;20848;-71
2022/06/25 12:41:47;;;;;;;0.93;0.70;;;;;;;;;;21059440;28;20204;-74
2022/06/25 12:51:48;;;;;;;0.70;0.30;;;;;;;;;;21074206;22;20230;-75
2022/06/25 13:01:51;;;;;;;0.25;0.20;;;;;;;;;;21055432;28;20215;-74
2022/06/25 13:11:52;;;;;;;0.30;0.30;;;;;;;;;;21071529;28;20295;-73
2022/06/25 13:21:54;;;;;;;0.20;0.20;;;;;;;;;;21074136;28;20207;-73
2022/06/25 13:31:59;;;;;;;1.48;0.40;;;;;;;;;;21070796;28;20531;-74
2022/06/25 13:42:01;;;;;;;0.47;0.30;;;;;;;;;;21069126;28;20228;-73
2022/06/25 13:52:04;;;;;;;0.35;0.30;;;;;;;;;;21063737;28;20289;-73
2022/06/25 14:02:06;;;;;;;0.52;0.32;;;28.40;99.90;;;;;;21070024;28;20206;-74
2022/06/25 14:12:08;;;;;;;0.47;0.30;;;;;;;;;;21044288;28;20217;-73
2022/06/25 14:22:10;;;;;;;0.30;0.30;;;;;;;;;;21043202;28;20263;-73
2022/06/25 14:32:12;;;;;;;1.13;0.47;;;;;;;;;;21094025;28;20290;-73
2022/06/25 14:42:23;;;;;;;0.60;0.40;;;;;;;;;;21098082;28;20255;-73
2022/06/25 14:52:24;;;;;;;0.43;0.30;;;;;;;;;;21096608;28;20217;-73
2022/06/25 15:02:26;;;;;;;0.47;0.30;;;;;;;;;;21096253;28;20269;-73
2022/06/25 15:12:31;;;;;;;0.40;0.30;;;;;;;;;;21076936;28;20252;-73
2022/06/25 15:22:33;;;;;;;0.50;0.30;;;;;;;;;;21076753;28;20191;-73
2022/06/25 15:32:34;;;;;;;0.50;0.32;;;;;;;;;;21089584;28;20604;-73
2022/06/25 15:42:36;;;;;;;0.30;0.30;;;;;;;;;;21080813;28;20220;-73
2022/06/25 15:52:39;;;;;;;0.52;0.30;;;;;;;;;;21067466;28;20710;-73
2022/06/25 16:02:40;;;;;;;0.50;0.40;;;28.40;99.90;;;;;;21077631;28;20211;-72
2022/06/25 16:12:42;;;;;;;0.40;0.30;;;;;;;;;;21075735;28;20196;-73
2022/06/25 16:22:44;;;;;;;0.30;0.20;;;;;;;;;;21076406;28;20256;-74
2022/06/25 16:32:45;;;;;;;0.90;0.47;;;;;;;;;;21072476;28;20253;-74
2022/06/25 16:43:06;;;;;;;0.52;0.40;;;;;;;;;;21050803;28;20273;-74
2022/06/25 16:53:08;;;;;;;0.60;0.30;;;;;;;;;;21036767;28;20283;-73
2022/06/25 17:03:10;;;;;;;0.57;0.30;;;;;;;;;;21071221;28;20590;-73
2022/06/25 17:13:11;;;;;;;0.40;0.30;;;;;;;;;;21070060;28;20222;-73
2022/06/25 17:23:14;;;;;;;2.10;0.60;;;;;;;;;;21068272;28;20597;-73
2022/06/25 17:33:15;;;;;;;0.63;0.30;;;;;;;;;;21051843;28;20257;-73
2022/06/25 17:43:17;;;;;;;1.40;0.70;;;;;;;;;;21069812;28;20218;-75
2022/06/25 17:53:20;;;;;;;1.77;0.50;;;;;;;;;;21068781;28;20549;-75
2022/06/25 18:03:21;;;;;;;0.77;0.28;;;;;;;;;;21065752;28;20673;-75
2022/06/25 18:13:23;;;;;;;0.80;0.50;;;;;;;;;;21069876;28;20249;-73
2022/06/25 18:23:25;;;;;;;0.60;0.40;;;;;;;;;;21066112;28;20720;-73
2022/06/25 18:33:27;;;;;;;1.27;0.40;;;;;;;;;;21034561;28;20281;-74
2022/06/25 18:43:29;;;;;;;1.00;0.50;;;;;;;;;;21013277;28;20765;-74
2022/06/25 18:53:31;;;;;;;7.93;5.05;;;;;;;;;;21075286;22;20642;-70
2022/06/25 19:03:33;;;;;;;3.78;2.03;;;;;;;;;;21040770;28;20691;-70
2022/06/25 19:13:36;;;;;;;3.65;2.20;;;;;;;;;;21063784;28;20265;-70
2022/06/25 19:23:38;;;;;;;3.10;1.80;;;;;;;;;;21044162;28;20267;-70
2022/06/25 19:33:40;;;;;;;1.58;0.98;;;;;;;;;;21043112;28;20296;-69
2022/06/25 19:43:42;;;;;;;2.05;0.90;;;;;;;;;;21096362;28;20255;-69
2022/06/25 19:53:44;;;;;;;1.52;0.85;;;;;;;;;;21121430;28;20275;-69
2022/06/25 20:03:46;;;;;;;0.60;0.50;;;;;;;;;;21111416;28;20218;-69
2022/06/25 20:13:47;;;;;;;2.40;0.80;;;26.00;99.90;;;;;;21110269;28;20217;-69
2022/06/25 20:23:49;;;;;;;2.90;1.10;;;;;;;;;;21108879;28;20222;-70
2022/06/25 20:33:51;;;;;;;1.90;1.00;;;;;;;;;;21040962;28;20204;-70
2022/06/25 20:43:54;;;;;;;1.73;0.95;;;;;;;;;;21111399;28;20255;-71
2022/06/25 20:53:56;;;;;;;1.25;0.60;;;;;;;;;;21128275;28;20208;-69
2022/06/25 21:14:18;;;;;;;1.02;0.70;;;;;;;;;;21123208;28;20884;-69
2022/06/25 21:24:20;;;;;;;1.35;0.60;;;;;;;;;;21080466;28;20280;-69
2022/06/25 21:34:23;;;;;;;2.53;0.52;;;;;;;;;;21098006;28;20274;-70
2022/06/25 21:44:25;;;;;;;1.20;0.70;;;;;;;;;;21040032;28;20220;-68
2022/06/25 21:54:27;;;;;;;0.73;0.55;;;;;;;;;;21094001;28;20602;-69
2022/06/25 22:04:29;;;;;;;3.47;1.00;;;;;;;;;;21120246;28;20215;-69
2022/06/25 22:14:30;;;;;;;1.60;0.80;;;;;;;;;;21107491;28;20248;-70
2022/06/25 22:24:32;;;;;;;1.27;0.80;;;;;;;;;;21104621;28;20683;-68
2022/06/25 22:34:34;;;;;;;1.05;0.70;;;;;;;;;;21105301;28;20207;-69
2022/06/25 22:44:36;;;;;;;1.58;0.70;;;;;;;;;;21103585;28;20283;-69
2022/06/25 22:54:38;;;;;;;1.05;0.70;;;;;;;;;;21123195;28;20643;-69
2022/06/25 23:04:40;;;;;;;1.00;0.60;;;;;;;;;;21137225;28;20231;-69
2022/06/25 23:14:43;;;;;;;0.43;0.38;;;;;;;;;;21113997;28;20233;-69
2022/06/25 23:24:44;;;;;;;0.57;0.43;;;;;;;;;;21098122;28;20222;-70
2022/06/25 23:34:46;;;;;;;0.70;0.60;;;;;;;;;;21081027;28;20629;-69
2022/06/25 23:44:48;;;;;;;1.48;0.40;;;;;;;;;;21102334;28;20222;-69
2022/06/25 23:54:50;;;;;;;0.52;0.40;;;;;;;;;;21107229;28;20563;-69
